Time;durP1;ratioP1;P1;durP2;ratioP2;P2;SDS_P1;SDS_P2;PMS_P1;PMS_P2;Temp;Humidity;BMP_temperature;BMP_pressure;BME280_temperature;BME280_humidity;BME280_pressure;Samples;Min_cycle;Max_cycle;Signal;HPM_P1;HPM_P2
2021/05/28 00:00:57;;;;;;;3.65;2.33;;;;;;;;;;5110008;28;20036;-69
2021/05/28 00:03:23;;;;;;;4.78;2.20;;;;;;;;;;5110461;28;20430;-70
2021/05/28 00:05:50;;;;;;;5.47;2.35;;;;;;;;;;5109027;28;20042;-70
2021/05/28 00:09:47;;;;;;;6.43;2.30;;;;;;;;;;5110347;27;20811;-69
2021/05/28 00:12:14;;;;;;;3.53;1.90;;;;;;;;;;5110487;28;20480;-69
2021/05/28 00:14:40;;;;;;;6.32;2.25;;;;;;;;;;5110238;28;20024;-69
2021/05/28 00:17:06;;;;;;;2.70;1.70;;;;;;;;;;5110260;28;20310;-69
2021/05/28 00:19:32;;;;;;;3.47;2.00;;;;;;;;;;5110247;28;20400;-69
2021/05/28 00:21:59;;;;;;;4.10;1.90;;;;;;;;;;5109795;28;20028;-69
2021/05/28 00:24:46;;;;;;;3.03;1.85;;;;;;;;;;5110441;27;20320;-69
2021/05/28 00:27:12;;;;;;;3.63;1.83;;;;;;;;;;5109137;28;20027;-70
2021/05/28 00:31:29;;;;;;;7.38;1.80;;;;;;;;;;5110231;27;20389;-70
2021/05/28 00:33:55;;;;;;;5.03;1.58;;;;;;;;;;5109185;28;20028;-69
2021/05/28 00:36:22;;;;;;;4.28;1.85;;;;;;;;;;5110237;28;20361;-70
2021/05/28 00:39:29;;;;;;;4.68;1.70;;;;;;;;;;5110457;27;20314;-69
2021/05/28 00:41:55;;;;;;;6.72;2.10;;;;;;;;;;5109853;28;20060;-69
2021/05/28 00:44:32;;;;;;;2.45;1.58;;;;;;;;;;5108858;28;20020;-69
2021/05/28 00:48:40;;;;;;;6.50;1.92;;;;;;;;;;5109959;27;20397;-69
2021/05/28 00:51:07;;;;;;;7.78;2.00;;;;;;;;;;5108976;28;20036;-69
2021/05/28 00:53:34;;;;;;;3.72;2.20;;;;;;;;;;5110362;28;20016;-69
2021/05/28 00:56:01;;;;;;;2.63;1.40;;;;;;;;;;5110104;28;20070;-69
2021/05/28 00:59:00;;;;;;;3.33;1.63;;;;;;;;;;5110422;27;20384;-69
2021/05/28 01:01:26;;;;;;;3.70;1.80;;;;;;;;;;5109058;28;20031;-69
2021/05/28 01:03:52;;;;;;;4.95;1.92;;;;;;;;;;5109912;28;20028;-70
2021/05/28 01:06:18;;;;;;;4.07;2.00;;;;;;;;;;5110296;28;20384;-69
2021/05/28 01:08:45;;;;;;;3.40;1.98;;;;;;;;;;5110209;28;20020;-69
2021/05/28 01:11:11;;;;;;;3.70;1.58;;;;;;;;;;5109925;28;20023;-69
2021/05/28 01:15:14;;;;;;;2.70;1.70;;;;;;;;;;5070050;27;20404;-69
2021/05/28 01:19:31;;;;;;;6.90;2.83;;;;;;;;;;5110381;27;20890;-69
2021/05/28 01:22:04;;;;;;;4.50;1.92;;;;;;;;;;5110318;28;20418;-69
2021/05/28 01:24:30;;;;;;;5.00;2.00;;;;;;;;;;5109947;28;20020;-69
2021/05/28 01:28:27;;;;;;;2.78;1.42;;;;;;;;;;5110427;27;20508;-69
2021/05/28 01:36:30;;;;;;;3.75;1.88;;;;;;;;;;5110475;27;20396;-69
2021/05/28 01:40:08;;;;;;;3.70;1.60;;;;;;;;;;5049694;28;20395;-69
2021/05/28 01:44:12;;;;;;;5.22;2.38;;;;;;;;;;5069851;28;20400;-69
2021/05/28 01:46:39;;;;;;;4.75;2.50;;;;;;;;;;5069357;28;20592;-69
2021/05/28 01:49:06;;;;;;;5.30;1.95;;;;;;;;;;5069716;28;20423;-69
2021/05/28 01:51:32;;;;;;;5.30;2.40;;;;;;;;;;5069893;28;20025;-69
2021/05/28 01:55:14;;;;;;;4.43;2.45;;;;;;;;;;5130901;27;20320;-69
2021/05/28 01:57:40;;;;;;;4.05;2.35;;;;;;;;;;5110482;28;20024;-69
2021/05/28 02:01:05;;;;;;;4.07;2.38;;;;;;;;;;5110208;27;20414;-69
2021/05/28 02:03:31;;;;;;;4.95;2.67;;;;;;;;;;5110462;28;20085;-69
2021/05/28 02:05:58;;;;;;;4.30;2.80;;;;;;;;;;5108490;28;20085;-70
2021/05/28 02:08:33;;;;;;;7.93;3.30;;;;;;;;;;5110406;27;20461;-69
2021/05/28 02:11:20;;;;;;;12.27;4.55;;;;;;;;;;5110620;27;20404;-69
2021/05/28 02:13:57;;;;;;;6.05;3.72;;;;;;;;;;5110277;27;20458;-69
2021/05/28 02:16:23;;;;;;;6.80;2.90;;;;;;;;;;5110506;28;20076;-70
2021/05/28 02:18:49;;;;;;;5.45;2.85;;;;;;;;;;5110348;28;20044;-69
2021/05/28 02:21:16;;;;;;;5.18;2.67;;;;;;;;;;5109909;28;20059;-69
2021/05/28 02:24:01;;;;;;;5.43;2.75;;;;;;;;;;5110491;27;20458;-69
2021/05/28 02:26:27;;;;;;;7.45;3.38;;;;;;;;;;5110438;28;20081;-69
2021/05/28 02:28:54;;;;;;;6.32;3.60;;;;;;;;;;5110004;28;20057;-69
2021/05/28 02:33:17;;;;;;;6.03;3.22;;;;;;;;;;5110639;27;20392;-69
2021/05/28 02:38:51;;;;;;;6.47;3.75;;;;;;;;;;5110312;27;20388;-69
2021/05/28 02:42:52;;;;;;;4.72;2.28;;;;;;;;;;5109924;27;20516;-69
2021/05/28 02:45:19;;;;;;;5.25;2.67;;;;;;;;;;5110439;28;20104;-69
2021/05/28 02:49:41;;;;;;;4.57;2.80;;;;;;;;;;5130552;27;20323;-69
2021/05/28 02:52:08;;;;;;;4.88;2.83;;;;;;;;;;5110629;28;20024;-70
2021/05/28 02:54:35;;;;;;;5.38;2.95;;;;;;;;;;5110496;28;20028;-70
2021/05/28 02:57:17;;;;;;;5.85;3.15;;;;;;;;;;5069264;28;20497;-69
2021/05/28 02:59:44;;;;;;;5.28;3.03;;;;;;;;;;5069794;28;20029;-69
2021/05/28 03:02:10;;;;;;;8.05;3.33;;;;;;;;;;5069285;28;20507;-69
2021/05/28 03:06:19;;;;;;;5.35;2.55;;;;;;;;;;5110273;27;20408;-70
2021/05/28 03:08:45;;;;;;;5.00;2.50;;;;;;;;;;5110473;28;20039;-69
2021/05/28 03:11:11;;;;;;;4.93;2.72;;;;;;;;;;5110000;28;20016;-69
2021/05/28 03:14:24;;;;;;;5.50;2.47;;;;;;;;;;5110603;27;20449;-69
2021/05/28 03:16:50;;;;;;;6.13;3.03;;;;;;;;;;5109950;28;20081;-69
2021/05/28 03:19:34;;;;;;;5.93;2.95;;;;;;;;;;5110729;28;20022;-69
2021/05/28 03:25:07;;;;;;;5.30;2.53;;;;;;;;;;5110117;27;20420;-69
2021/05/28 03:27:34;;;;;;;5.47;2.53;;;;;;;;;;5110491;28;20055;-69
2021/05/28 03:30:00;;;;;;;5.47;2.55;;;;;;;;;;5110329;28;20020;-70
2021/05/28 03:32:26;;;;;;;4.57;2.58;;;;;;;;;;5125938;28;20024;-71
2021/05/28 03:36:40;;;;;;;5.20;2.47;;;;;;;;;;5110334;27;20385;-70
2021/05/28 03:40:21;;;;;;;6.65;3.42;;;;;;;;;;5110420;27;20393;-70
2021/05/28 03:42:47;;;;;;;4.35;2.90;;;;;;;;;;5110476;28;20031;-69
2021/05/28 03:45:13;;;;;;;7.43;3.28;;;;;;;;;;5110028;28;20048;-69
2021/05/28 03:49:30;;;;;;;5.90;3.20;;;;;;;;;;5110400;27;20393;-70
2021/05/28 03:51:56;;;;;;;5.15;3.13;;;;;;;;;;5110163;28;20038;-70
2021/05/28 03:54:22;;;;;;;7.13;3.50;;;;;;;;;;5110595;28;20065;-70
2021/05/28 03:56:49;;;;;;;14.38;4.10;;;;;;;;;;5110325;28;20023;-70
2021/05/28 03:59:15;;;;;;;4.95;2.70;;;;;;;;;;5108618;28;20023;-70
2021/05/28 04:01:42;;;;;;;5.35;2.90;;;;;;;;;;5110197;28;20034;-70
2021/05/28 04:04:55;;;;;;;8.85;3.50;;;;;;;;;;5110453;27;20419;-70
2021/05/28 04:07:24;;;;;;;6.28;3.17;;;;;;;;;;5110034;28;20027;-70
2021/05/28 04:12:42;;;;;;;7.97;3.72;;;;;;;;;;5069673;28;20410;-70
2021/05/28 04:15:09;;;;;;;6.50;3.53;;;;;;;;;;5069970;28;20035;-70
2021/05/28 04:17:35;;;;;;;3.92;2.72;;;;;;;;;;5068619;28;20422;-69
2021/05/28 04:20:01;;;;;;;6.60;3.53;;;;;;;;;;5068097;28;20516;-69
2021/05/28 04:26:02;;;;;;;8.02;3.20;;;;;;;;;;5110542;27;20393;-70
2021/05/28 04:28:28;;;;;;;4.82;2.90;;;;;;;;;;5108667;28;20054;-70
2021/05/28 04:30:57;;;;;;;7.85;3.20;;;;;;;;;;5110509;28;20492;-70
2021/05/28 04:35:49;;;;;;;7.40;4.00;;;;;;;;;;5110420;27;20396;-70
2021/05/28 04:38:15;;;;;;;6.13;3.38;;;;;;;;;;5110322;28;20365;-70
2021/05/28 04:42:53;;;;;;;8.88;4.15;;;;;;;;;;5110323;27;20599;-70
2021/05/28 04:45:20;;;;;;;6.63;3.60;;;;;;;;;;5109032;28;20028;-70
2021/05/28 04:49:18;;;;;;;6.63;3.33;;;;;;;;;;5109889;27;20459;-70
2021/05/28 04:51:44;;;;;;;5.72;3.75;;;;;;;;;;5110589;28;20032;-70
2021/05/28 04:54:10;;;;;;;5.88;2.85;;;;;;;;;;5110571;28;20384;-70
2021/05/28 04:59:12;;;;;;;5.55;2.85;;;;;;;;;;5110406;27;20450;-65
2021/05/28 05:01:38;;;;;;;7.00;3.80;;;;;;;;;;5110040;28;20130;-66
2021/05/28 05:04:05;;;;;;;9.55;3.72;;;;;;;;;;5109960;28;20020;-64
2021/05/28 05:07:53;;;;;;;6.35;3.75;;;;;;;;;;5171909;27;20302;-66
2021/05/28 05:10:19;;;;;;;7.82;3.38;;;;;;;;;;5151326;27;20431;-65
2021/05/28 05:12:45;;;;;;;6.72;3.85;;;;;;;;;;5151380;27;20450;-66
2021/05/28 05:15:20;;;;;;;8.90;4.10;;;;;;;;;;5110188;27;20453;-66
2021/05/28 05:17:46;;;;;;;6.88;3.63;;;;;;;;;;5106762;28;20028;-66
2021/05/28 05:22:11;;;;;;;7.70;3.50;;;;;;;;;;5109588;27;20493;-65
2021/05/28 05:25:16;;;;;;;6.00;3.40;;;;;;;;;;5109906;27;20420;-65
2021/05/28 05:28:50;;;;;;;11.10;3.88;;;;;;;;;;5110029;27;20443;-66
2021/05/28 05:31:16;;;;;;;9.25;3.85;;;;;;;;;;5108373;28;20123;-66
2021/05/28 05:33:42;;;;;;;9.10;4.20;;;;;;;;;;5108287;28;20081;-66
2021/05/28 05:37:07;;;;;;;9.18;4.35;;;;;;;;;;5090389;27;20519;-66
2021/05/28 05:40:26;;;;;;;6.53;4.38;;;;;;;;;;5110352;27;20446;-66
2021/05/28 05:42:52;;;;;;;6.78;3.30;;;;;;;;;;5110359;28;20039;-66
2021/05/28 05:45:18;;;;;;;6.70;3.58;;;;;;;;;;5109963;28;20020;-66
2021/05/28 05:47:47;;;;;;;7.60;3.65;;;;;;;;;;5108826;28;20020;-65
2021/05/28 05:50:36;;;;;;;5.45;3.05;;;;;;;;;;5110208;27;20814;-66
2021/05/28 05:53:02;;;;;;;5.65;2.78;;;;;;;;;;5107472;28;20032;-64
2021/05/28 05:55:29;;;;;;;6.10;3.33;;;;;;;;;;5090037;28;20078;-65
2021/05/28 06:00:01;;;;;;;7.72;3.38;;;;;;;;;;5123660;27;20328;-64
2021/05/28 06:02:28;;;;;;;5.63;3.20;;;;;;;;;;5109613;28;20102;-64
2021/05/28 06:04:54;;;;;;;4.82;2.75;;;;;;;;;;5091171;28;20416;-66
2021/05/28 06:07:20;;;;;;;5.20;2.90;;;;;;;;;;5109480;28;20036;-65
2021/05/28 06:09:46;;;;;;;6.07;3.33;;;;;;;;;;5108253;28;20020;-64
2021/05/28 06:12:13;;;;;;;5.45;2.53;;;;;;;;;;5109783;28;20024;-64
2021/05/28 06:14:39;;;;;;;6.85;3.53;;;;;;;;;;5109215;28;20024;-64
2021/05/28 06:17:05;;;;;;;7.10;3.53;;;;;;;;;;5109961;28;20028;-63
2021/05/28 06:19:31;;;;;;;8.90;2.90;;;;;;;;;;5109616;28;20049;-64
2021/05/28 06:21:57;;;;;;;4.85;2.70;;;;;;;;;;5091317;28;20391;-63
2021/05/28 06:24:24;;;;;;;11.25;3.67;;;;;;;;;;5109945;28;20103;-65
2021/05/28 06:26:50;;;;;;;6.18;3.28;;;;;;;;;;5109252;28;20036;-64
2021/05/28 06:29:16;;;;;;;7.80;3.20;;;;;;;;;;5109746;28;20070;-65
2021/05/28 06:31:43;;;;;;;7.70;3.08;;;;;;;;;;5109796;28;20024;-65
2021/05/28 06:34:09;;;;;;;10.55;3.45;;;;;;;;;;5091254;28;20028;-64
2021/05/28 06:36:35;;;;;;;7.18;3.35;;;;;;;;;;5109182;28;20069;-64
2021/05/28 06:39:01;;;;;;;7.80;3.28;;;;;;;;;;5109305;28;20085;-65
2021/05/28 06:42:07;;;;;;;6.78;3.35;;;;;;;;;;5109650;27;20384;-65
2021/05/28 06:46:39;;;;;;;7.10;3.15;;;;;;;;;;5109673;27;20412;-64
2021/05/28 06:49:05;;;;;;;5.95;2.60;;;;;;;;;;5109751;28;20077;-65
2021/05/28 06:53:01;;;;;;;5.10;3.13;;;;;;;;;;5110402;27;20442;-65
2021/05/28 06:55:27;;;;;;;5.07;2.78;;;;;;;;;;5110079;28;20051;-64
2021/05/28 06:57:54;;;;;;;5.97;2.85;;;;;;;;;;5109796;28;20016;-70
2021/05/28 07:00:20;;;;;;;6.22;3.35;;;;;;;;;;5109982;28;20027;-69
2021/05/28 07:02:46;;;;;;;5.70;3.00;;;;;;;;;;5109667;28;20032;-74
2021/05/28 07:05:13;;;;;;;5.78;3.45;;;;;;;;;;5110313;28;20062;-71
2021/05/28 07:07:40;;;;;;;6.03;3.35;;;;;;;;;;5110209;28;20048;-71
2021/05/28 07:10:06;;;;;;;6.85;2.95;;;;;;;;;;5108634;28;20020;-73
2021/05/28 07:12:33;;;;;;;5.80;2.38;;;;;;;;;;5109390;28;20036;-72
2021/05/28 07:14:59;;;;;;;5.03;3.05;;;;;;;;;;5101553;28;20020;-72
2021/05/28 07:17:25;;;;;;;7.07;3.13;;;;;;;;;;5108672;28;20066;-69
2021/05/28 07:19:51;;;;;;;9.05;3.03;;;;;;;;;;5109920;28;20095;-68
2021/05/28 07:22:18;;;;;;;4.97;3.05;;;;;;;;;;5109399;28;20028;-70
2021/05/28 07:24:44;;;;;;;6.03;3.28;;;;;;;;;;5109493;28;20024;-69
2021/05/28 07:27:10;;;;;;;7.72;3.35;;;;;;;;;;5108274;28;20076;-68
2021/05/28 07:29:36;;;;;;;11.15;3.55;;;;;;;;;;5107491;28;20026;-69
2021/05/28 07:32:03;;;;;;;5.75;2.15;;;;;;;;;;5108322;28;20455;-69
2021/05/28 07:34:30;;;;;;;5.10;1.95;;;;;;;;;;5109367;28;20027;-69
2021/05/28 07:36:56;;;;;;;5.00;1.77;;;;;;;;;;5109030;28;20024;-70
2021/05/28 07:41:59;;;;;;;9.18;1.63;;;;;;;;;;5110215;27;20852;-68
2021/05/28 07:44:26;;;;;;;5.03;1.15;;;;;;;;;;5109748;28;20456;-67
2021/05/28 07:46:52;;;;;;;3.08;0.85;;;;;;;;;;5110176;28;20027;-69
2021/05/28 07:49:18;;;;;;;1.30;0.73;;;;;;;;;;5108844;28;20054;-69
2021/05/28 07:51:45;;;;;;;1.85;0.75;;;;;;;;;;5109083;28;20020;-69
2021/05/28 07:56:05;;;;;;;2.63;1.00;;;;;;;;;;5110122;27;20404;-68
2021/05/28 08:03:53;;;;;;;1.52;0.73;;;;;;;;;;5110164;27;20741;-69
2021/05/28 08:06:19;;;;;;;1.90;1.30;;;;;;;;;;5108370;28;20503;-69
2021/05/28 08:10:15;;;;;;;3.53;1.20;;;;;;;;;;5069423;28;20419;-71
2021/05/28 08:12:41;;;;;;;1.73;0.93;;;;;;;;;;5069176;28;20067;-71
2021/05/28 08:15:08;;;;;;;9.30;1.17;;;;;;;;;;5069445;28;20531;-71
2021/05/28 08:18:14;;;;;;;1.75;0.73;;;;;;;;;;5109903;27;20830;-70
2021/05/28 08:20:42;;;;;;;3.17;1.10;;;;;;;;;;5108164;28;20027;-69
2021/05/28 08:23:52;;;;;;;1.67;0.80;;;;;;;;;;5109844;27;20973;-69
2021/05/28 08:28:20;;;;;;;1.58;0.68;;;;;;;;;;5069038;28;20393;-68
2021/05/28 08:30:47;;;;;;;2.88;0.50;;;;;;;;;;5068652;28;20104;-71
2021/05/28 08:33:47;;;;;;;1.38;0.63;;;;;;;;;;5108331;27;20377;-71
2021/05/28 08:36:13;;;;;;;1.73;0.80;;;;;;;;;;5108707;28;20035;-69
2021/05/28 08:38:39;;;;;;;2.55;0.90;;;;;;;;;;5107811;28;20095;-71
2021/05/28 08:41:06;;;;;;;1.92;0.80;;;;;;;;;;5109439;28;20426;-71
2021/05/28 08:43:47;;;;;;;1.90;0.82;;;;;;;;;;5069455;28;20391;-71
2021/05/28 08:46:14;;;;;;;1.17;0.50;;;;;;;;;;5069307;28;20024;-71
2021/05/28 08:48:40;;;;;;;2.38;0.90;;;;;;;;;;5068731;28;20420;-71
2021/05/28 08:51:07;;;;;;;2.45;0.80;;;;;;;;;;5069370;28;20021;-71
2021/05/28 08:53:33;;;;;;;2.92;1.00;;;;;;;;;;5069585;28;20048;-72
2021/05/28 08:56:00;;;;;;;2.10;1.13;;;;;;;;;;5069132;28;20028;-74
2021/05/28 08:58:28;;;;;;;2.17;1.00;;;;;;;;;;5069454;28;20028;-75
2021/05/28 09:00:54;;;;;;;1.60;0.75;;;;;;;;;;5068611;28;20030;-75
2021/05/28 09:03:21;;;;;;;2.22;0.80;;;;;;;;;;5069198;28;20032;-72
2021/05/28 09:05:48;;;;;;;2.70;0.80;;;;;;;;;;5069214;28;20433;-77
2021/05/28 09:08:23;;;;;;;6.20;1.00;;;;;;;;;;5064189;28;20492;-75
2021/05/28 09:14:35;;;;;;;2.30;1.00;;;;;;;;;;5129888;27;20668;-75
2021/05/28 09:17:02;;;;;;;4.38;0.98;;;;;;;;;;5110251;28;20051;-72
2021/05/28 09:19:28;;;;;;;3.72;0.88;;;;;;;;;;5111808;28;20102;-73
2021/05/28 09:23:07;;;;;;;1.67;0.80;;;;;;;;;;5114785;27;20489;-76
2021/05/28 09:25:52;;;;;;;5.38;1.15;;;;;;;;;;5123843;28;20058;-78
2021/05/28 09:30:19;;;;;;;7.15;0.90;;;;;;;;;;5078545;28;20496;-78
2021/05/28 09:32:47;;;;;;;1.63;0.80;;;;;;;;;;5081178;28;20028;-73
2021/05/28 09:35:14;;;;;;;1.17;0.80;;;;;;;;;;5076081;28;20112;-74
2021/05/28 09:37:48;;;;;;;2.33;0.80;;;;;;;;;;5072659;28;20017;-77
2021/05/28 09:40:19;;;;;;;2.25;0.82;;;;;;;;;;5070433;28;20029;-77
2021/05/28 09:42:46;;;;;;;1.55;0.73;;;;;;;;;;5070593;28;20052;-75
2021/05/28 09:45:34;;;;;;;4.68;0.90;;;;;;;;;;5068895;28;20040;-74
2021/05/28 09:49:41;;;;;;;5.30;2.65;;;;;;;;;;5109084;27;21004;-78
2021/05/28 09:52:19;;;;;;;1.83;0.82;;;;;;;;;;5092988;27;20335;-75
2021/05/28 09:55:00;;;;;;;1.60;0.82;;;;;;;;;;5088773;28;20025;-73
2021/05/28 09:57:37;;;;;;;1.65;0.55;;;;;;;;;;5088900;28;20043;-77
2021/05/28 10:00:08;;;;;;;3.58;1.45;;;;;;;;;;5088983;28;20527;-74
2021/05/28 10:02:42;;;;;;;6.65;0.80;;;;;;;;;;5090217;28;20031;-75
2021/05/28 10:06:32;;;;;;;1.70;0.95;;;;;;;;;;5110592;27;20387;-77
2021/05/28 10:08:59;;;;;;;1.15;0.50;;;;;;;;;;5091514;28;20028;-75
2021/05/28 10:11:28;;;;;;;1.30;0.57;;;;;;;;;;5110812;28;20484;-76
2021/05/28 10:13:55;;;;;;;1.63;0.75;;;;;;;;;;5110903;28;20024;-75
2021/05/28 10:16:22;;;;;;;4.10;0.55;;;;;;;;;;5107290;28;20395;-74
2021/05/28 10:18:49;;;;;;;1.65;0.85;;;;;;;;;;5107390;28;20019;-75
2021/05/28 10:21:16;;;;;;;2.30;1.10;;;;;;;;;;5108972;28;20024;-74
2021/05/28 10:23:43;;;;;;;1.48;1.00;;;;;;;;;;5107637;28;20395;-76
2021/05/28 10:26:09;;;;;;;3.55;0.93;;;;;;;;;;5107732;28;20419;-75
2021/05/28 10:28:36;;;;;;;1.67;1.02;;;;;;;;;;5108272;28;20020;-75
2021/05/28 10:31:03;;;;;;;5.82;0.93;;;;;;;;;;5108498;28;20122;-75
2021/05/28 10:33:30;;;;;;;3.85;1.15;;;;;;;;;;5110239;28;20357;-73
2021/05/28 10:36:10;;;;;;;1.25;0.68;;;;;;;;;;5110250;28;20480;-76
2021/05/28 10:42:28;;;;;;;3.83;1.38;;;;;;;;;;5110342;27;20821;-73
2021/05/28 10:44:54;;;;;;;3.40;1.00;;;;;;;;;;5110501;28;20028;-75
2021/05/28 10:47:21;;;;;;;3.05;1.10;;;;;;;;;;5110139;28;20051;-73
2021/05/28 10:49:49;;;;;;;7.70;1.30;;;;;;;;;;5110346;28;20521;-74
2021/05/28 10:52:35;;;;;;;3.90;1.15;;;;;;;;;;5110282;28;20024;-73
2021/05/28 10:55:12;;;;;;;2.95;1.45;;;;;;;;;;5109906;28;20024;-71
2021/05/28 10:57:48;;;;;;;2.58;1.42;;;;;;;;;;5108423;28;20471;-72
2021/05/28 11:00:21;;;;;;;3.25;1.20;;;;;;;;;;5109227;28;20020;-73
2021/05/28 11:03:50;;;;;;;4.40;1.80;;;;;;;;;;5108824;27;20741;-73
2021/05/28 11:06:17;;;;;;;3.42;1.50;;;;;;;;;;5108411;28;20500;-73
2021/05/28 11:08:44;;;;;;;2.63;1.50;;;;;;;;;;5107218;28;20387;-73
2021/05/28 11:11:31;;;;;;;6.72;1.70;;;;;;;;;;5109080;28;20095;-72
2021/05/28 11:14:00;;;;;;;4.75;1.60;;;;;;;;;;5095303;28;20036;-70
2021/05/28 11:16:27;;;;;;;4.80;1.58;;;;;;;;;;5108248;28;20047;-72
2021/05/28 11:18:53;;;;;;;2.67;1.60;;;;;;;;;;5108168;28;20012;-71
2021/05/28 11:21:21;;;;;;;5.43;1.70;;;;;;;;;;5107356;28;20028;-69
2021/05/28 11:23:49;;;;;;;8.38;2.00;;;;;;;;;;5107106;28;20051;-72
2021/05/28 11:26:56;;;;;;;3.35;1.60;;;;;;;;;;5110232;27;20798;-74
2021/05/28 11:29:23;;;;;;;5.53;1.58;;;;;;;;;;5107902;28;20046;-72
2021/05/28 11:31:50;;;;;;;4.32;1.90;;;;;;;;;;5109544;28;20028;-72
2021/05/28 11:34:16;;;;;;;1.65;1.10;;;;;;;;;;5109181;28;20020;-72
2021/05/28 11:36:45;;;;;;;5.40;1.65;;;;;;;;;;5108319;28;20054;-72
2021/05/28 11:39:22;;;;;;;3.10;1.40;;;;;;;;;;5108176;28;20015;-72
2021/05/28 11:41:53;;;;;;;3.83;1.77;;;;;;;;;;5107361;28;20024;-71
2021/05/28 11:44:20;;;;;;;3.88;2.15;;;;;;;;;;5106736;28;20023;-73
2021/05/28 11:46:51;;;;;;;3.60;1.20;;;;;;;;;;5106380;28;20054;-74
2021/05/28 11:49:19;;;;;;;7.25;2.17;;;;;;;;;;5107625;28;20472;-71
2021/05/28 11:51:45;;;;;;;3.40;1.70;;;;;;;;;;5109201;28;20039;-72
2021/05/28 11:54:22;;;;;;;3.92;1.75;;;;;;;;;;5110118;28;20023;-72
2021/05/28 11:57:01;;;;;;;2.33;1.65;;;;;;;;;;5109293;28;20020;-72
2021/05/28 11:59:49;;;;;;;6.40;3.15;;;;;;;;;;5108352;28;20024;-73
2021/05/28 12:02:31;;;;;;;2.95;2.00;;;;;;;;;;5109837;28;20495;-73
2021/05/28 12:04:57;;;;;;;3.77;2.00;;;;;;;;;;5108062;28;20028;-73
2021/05/28 12:07:27;;;;;;;5.80;2.15;;;;;;;;;;5109721;28;20028;-73
2021/05/28 12:10:20;;;;;;;2.78;1.80;;;;;;;;;;5108136;28;20016;-74
2021/05/28 12:12:56;;;;;;;2.97;1.92;;;;;;;;;;5104026;28;20035;-73
2021/05/28 12:15:27;;;;;;;4.28;2.10;;;;;;;;;;5108972;28;20032;-73
2021/05/28 12:17:53;;;;;;;3.05;1.95;;;;;;;;;;5109123;28;20016;-72
2021/05/28 12:20:21;;;;;;;3.83;1.83;;;;;;;;;;5109326;28;20062;-72
2021/05/28 12:23:00;;;;;;;6.22;1.90;;;;;;;;;;5109402;28;20362;-73
2021/05/28 12:25:27;;;;;;;7.38;2.90;;;;;;;;;;5108677;28;20142;-72
2021/05/28 12:27:53;;;;;;;8.43;2.13;;;;;;;;;;5109306;28;20484;-73
2021/05/28 12:30:26;;;;;;;2.63;1.77;;;;;;;;;;5108582;28;20059;-73
2021/05/28 12:32:52;;;;;;;;;;;;;;;;;;5109438;28;20023;-73
2021/05/28 12:35:18;;;;;;;3.63;2.30;;;;;;;;;;5108059;28;19903;-73
2021/05/28 12:38:03;;;;;;;2.03;1.58;;;;;;;;;;5098441;28;20051;-73
2021/05/28 12:40:31;;;;;;;4.38;1.75;;;;;;;;;;5093787;28;20056;-73
2021/05/28 12:43:00;;;;;;;1.63;1.40;;;;;;;;;;5094095;28;20085;-73
2021/05/28 12:45:40;;;;;;;4.13;2.25;;;;;;;;;;5093948;28;20118;-73
2021/05/28 12:48:07;;;;;;;4.55;2.22;;;;;;;;;;5094969;28;20520;-73
2021/05/28 12:50:37;;;;;;;6.20;2.40;;;;;;;;;;5095297;28;20016;-73
2021/05/28 12:53:10;;;;;;;3.95;2.15;;;;;;;;;;5095174;28;20132;-73
2021/05/28 12:55:37;;;;;;;4.85;1.85;;;;;;;;;;5095219;28;20476;-73
2021/05/28 12:58:04;;;;;;;2.72;1.60;;;;;;;;;;5094947;28;20158;-73
2021/05/28 13:00:37;;;;;;;2.92;1.35;;;;;;;;;;5094744;28;20016;-73
2021/05/28 13:03:04;;;;;;;3.63;1.60;;;;;;;;;;5094971;28;20099;-73
2021/05/28 13:05:31;;;;;;;4.57;1.45;;;;;;;;;;5094940;28;20028;-73
2021/05/28 13:07:58;;;;;;;1.33;0.90;;;;;;;;;;5093148;28;20469;-73
2021/05/28 13:10:25;;;;;;;2.53;1.10;;;;;;;;;;5094795;28;20097;-73
2021/05/28 13:12:51;;;;;;;3.35;1.10;;;;;;;;;;5093761;28;20111;-73
2021/05/28 13:15:26;;;;;;;2.30;1.00;;;;;;;;;;5094864;28;20428;-73
2021/05/28 13:17:53;;;;;;;2.05;1.13;;;;;;;;;;5094816;28;20107;-73
2021/05/28 13:20:19;;;;;;;1.80;1.15;;;;;;;;;;5094863;28;20070;-74
2021/05/28 13:22:48;;;;;;;1.75;1.52;;;;;;;;;;5092817;28;20024;-72
2021/05/28 13:25:45;;;;;;;2.72;1.08;;;;;;;;;;5094348;28;20048;-72
2021/05/28 13:28:16;;;;;;;1.77;0.70;;;;;;;;;;5093841;28;20429;-70
2021/05/28 13:30:46;;;;;;;2.72;0.90;;;;;;;;;;5094966;28;20042;-71
2021/05/28 13:33:31;;;;;;;3.72;1.05;;;;;;;;;;5094610;28;20032;-72
2021/05/28 13:36:01;;;;;;;4.70;1.27;;;;;;;;;;5094054;28;20027;-74
2021/05/28 13:38:27;;;;;;;1.88;0.82;;;;;;;;;;5094364;28;20024;-72
2021/05/28 13:40:54;;;;;;;3.60;0.95;;;;;;;;;;5094370;28;20091;-71
2021/05/28 13:43:23;;;;;;;1.98;1.00;;;;;;;;;;5093868;28;20099;-73
2021/05/28 13:45:50;;;;;;;1.33;0.95;;;;;;;;;;5092856;28;20093;-73
2021/05/28 13:48:16;;;;;;;1.60;0.70;;;;;;;;;;5093484;28;20020;-73
2021/05/28 13:50:43;;;;;;;2.42;1.08;;;;;;;;;;5092466;28;20573;-73
2021/05/28 13:53:10;;;;;;;1.67;0.90;;;;;;;;;;5094218;28;20067;-73
2021/05/28 13:55:37;;;;;;;4.38;0.90;;;;;;;;;;5080723;28;20111;-73
2021/05/28 13:58:04;;;;;;;2.80;1.00;;;;;;;;;;5088412;28;20028;-73
2021/05/28 14:00:30;;;;;;;3.75;0.88;;;;;;;;;;5076464;28;20508;-73
2021/05/28 14:02:56;;;;;;;1.60;1.15;;;;;;;;;;5092678;28;20043;-74
2021/05/28 14:05:23;;;;;;;1.45;0.90;;;;;;;;;;5076264;28;20064;-73
2021/05/28 14:07:49;;;;;;;2.35;1.00;;;;;;;;;;5073640;28;20373;-74
2021/05/28 14:10:16;;;;;;;2.88;0.70;;;;;;;;;;5073434;28;20031;-73
2021/05/28 14:12:43;;;;;;;2.63;1.00;;;;;;;;;;5072414;28;20039;-73
2021/05/28 14:15:10;;;;;;;1.95;1.00;;;;;;;;;;5072190;28;20023;-73
2021/05/28 14:17:36;;;;;;;6.30;1.45;;;;;;;;;;5072859;28;20037;-73
2021/05/28 14:20:04;;;;;;;3.92;1.80;;;;;;;;;;5072036;28;20108;-73
2021/05/28 14:22:30;;;;;;;2.53;1.30;;;;;;;;;;5071941;28;20122;-73
2021/05/28 14:24:56;;;;;;;3.10;1.27;;;;;;;;;;5072316;28;20392;-72
2021/05/28 14:27:22;;;;;;;2.45;1.23;;;;;;;;;;5073311;28;20027;-74
2021/05/28 14:29:48;;;;;;;1.40;0.82;;;;;;;;;;5073168;28;20025;-71
2021/05/28 14:32:15;;;;;;;3.60;1.25;;;;;;;;;;5087019;28;20034;-72
2021/05/28 14:34:41;;;;;;;4.53;2.05;;;;;;;;;;5092169;28;20020;-72
2021/05/28 14:37:08;;;;;;;4.57;1.42;;;;;;;;;;5087689;28;20020;-71
2021/05/28 14:39:34;;;;;;;2.20;1.15;;;;;;;;;;5072418;28;20021;-72
2021/05/28 14:42:00;;;;;;;2.38;1.17;;;;;;;;;;5089167;28;20388;-74
2021/05/28 14:44:26;;;;;;;1.45;1.02;;;;;;;;;;5088843;28;20477;-71
2021/05/28 14:46:53;;;;;;;2.17;0.90;;;;;;;;;;5072965;28;20044;-71
2021/05/28 14:49:19;;;;;;;1.52;1.05;;;;;;;;;;5070738;28;20020;-72
2021/05/28 14:51:46;;;;;;;1.55;0.98;;;;;;;;;;5070707;28;20028;-72
2021/05/28 14:54:12;;;;;;;3.97;1.33;;;;;;;;;;5071036;28;20060;-73
2021/05/28 14:56:39;;;;;;;1.70;0.88;;;;;;;;;;5072883;28;20025;-73
2021/05/28 14:59:06;;;;;;;1.67;1.00;;;;;;;;;;5069558;28;20393;-73
2021/05/28 15:01:32;;;;;;;7.47;1.10;;;;;;;;;;5084637;28;20052;-73
2021/05/28 15:03:58;;;;;;;1.65;1.00;;;;;;;;;;5084772;28;20031;-73
2021/05/28 15:06:25;;;;;;;2.53;1.23;;;;;;;;;;5091685;28;20028;-73
2021/05/28 15:08:51;;;;;;;7.88;1.55;;;;;;;;;;5091285;28;20024;-73
2021/05/28 15:11:17;;;;;;;2.28;1.40;;;;;;;;;;5092413;28;20024;-73
2021/05/28 15:13:44;;;;;;;4.68;1.63;;;;;;;;;;5089735;28;20327;-72
2021/05/28 15:16:10;;;;;;;6.45;1.58;;;;;;;;;;5090547;28;20032;-73
2021/05/28 15:18:36;;;;;;;2.60;1.48;;;;;;;;;;5091109;28;20020;-73
2021/05/28 15:21:04;;;;;;;4.13;1.40;;;;;;;;;;5091410;28;20025;-72
2021/05/28 15:23:30;;;;;;;3.10;1.67;;;;;;;;;;5090161;28;20405;-72
2021/05/28 15:25:57;;;;;;;2.42;1.60;;;;;;;;;;5089665;28;20211;-73
2021/05/28 15:28:23;;;;;;;1.90;1.50;;;;;;;;;;5090208;28;20073;-72
2021/05/28 15:30:49;;;;;;;3.65;1.85;;;;;;;;;;5089733;28;20484;-73
2021/05/28 15:33:16;;;;;;;3.10;1.80;;;;;;;;;;5091547;28;20028;-72
2021/05/28 15:35:44;;;;;;;4.05;2.10;;;;;;;;;;5091702;28;20061;-72
2021/05/28 15:38:11;;;;;;;6.07;1.95;;;;;;;;;;5092222;28;20024;-72
2021/05/28 15:40:38;;;;;;;4.95;1.60;;;;;;;;;;5092434;28;20503;-72
2021/05/28 15:43:05;;;;;;;2.75;1.67;;;;;;;;;;5092116;28;20024;-71
2021/05/28 15:45:31;;;;;;;3.70;1.95;;;;;;;;;;5092310;28;20041;-72
2021/05/28 15:47:58;;;;;;;4.60;2.00;;;;;;;;;;5092314;28;20031;-72
2021/05/28 15:50:25;;;;;;;9.95;2.20;;;;;;;;;;5091961;28;20021;-72
2021/05/28 15:52:52;;;;;;;6.22;2.20;;;;;;;;;;5092590;28;20048;-71
2021/05/28 15:55:19;;;;;;;3.58;1.60;;;;;;;;;;5092600;28;20027;-71
2021/05/28 15:57:45;;;;;;;3.75;2.30;;;;;;;;;;5091824;28;20193;-71
2021/05/28 16:00:12;;;;;;;2.75;1.75;;;;;;;;;;5092204;28;20542;-71
2021/05/28 16:02:38;;;;;;;4.32;2.25;;;;;;;;;;5091929;28;20048;-71
2021/05/28 16:05:09;;;;;;;3.72;2.08;;;;;;;;;;5090429;28;20034;-71
2021/05/28 16:07:35;;;;;;;3.83;2.25;;;;;;;;;;5089682;28;20031;-72
2021/05/28 16:10:01;;;;;;;3.88;2.05;;;;;;;;;;5090162;28;20016;-71
2021/05/28 16:12:27;;;;;;;7.63;2.50;;;;;;;;;;5094101;28;20020;-71
2021/05/28 16:15:06;;;;;;;6.07;2.88;;;;;;;;;;5110125;27;20993;-70
2021/05/28 16:17:33;;;;;;;4.13;2.40;;;;;;;;;;5109757;28;20055;-70
2021/05/28 16:19:59;;;;;;;7.25;2.95;;;;;;;;;;5109294;28;20031;-69
2021/05/28 16:22:26;;;;;;;5.10;3.25;;;;;;;;;;5108380;28;20020;-71
2021/05/28 16:24:52;;;;;;;7.03;4.05;;;;;;;;;;5106389;28;20020;-71
2021/05/28 16:27:18;;;;;;;6.13;3.35;;;;;;;;;;5107828;28;20024;-71
2021/05/28 16:29:46;;;;;;;5.82;2.22;;;;;;;;;;5108471;28;20027;-71